createdAt,value
2023-03-16T00:00:57.920Z,31.97
2023-03-16T00:03:31.202Z,34.95
2023-03-16T00:06:04.282Z,35.30
2023-03-16T00:08:38.706Z,33.93
2023-03-16T00:11:12.527Z,32.58
2023-03-16T00:13:45.722Z,33.65
2023-03-16T00:16:18.945Z,32.03
2023-03-16T00:18:51.873Z,31.23
2023-03-16T00:21:25.271Z,33.00
2023-03-16T00:23:58.461Z,32.53
2023-03-16T00:26:32.262Z,34.05
2023-03-16T00:29:05.076Z,29.48
2023-03-16T00:31:38.274Z,36.63
2023-03-16T00:34:11.428Z,32.38
2023-03-16T00:36:44.810Z,34.37
2023-03-16T00:39:18.210Z,30.75
2023-03-16T00:41:58.527Z,30.93
2023-03-16T00:44:31.957Z,29.25
2023-03-16T00:47:06.788Z,31.50
2023-03-16T00:49:40.178Z,30.85
2023-03-16T00:52:15.971Z,27.80
2023-03-16T00:54:49.890Z,27.73
2023-03-16T00:57:23.636Z,29.50
2023-03-16T00:59:56.430Z,31.73
2023-03-16T01:02:29.607Z,31.97
2023-03-16T01:05:03.012Z,28.40
2023-03-16T01:07:36.632Z,27.10
2023-03-16T01:10:11.780Z,28.53
2023-03-16T01:12:46.405Z,30.95
2023-03-16T01:15:19.752Z,30.62
2023-03-16T01:17:52.229Z,27.15
2023-03-16T01:20:27.058Z,29.23
2023-03-16T01:23:01.502Z,27.15
2023-03-16T01:25:34.667Z,27.80
2023-03-16T01:28:07.856Z,26.77
2023-03-16T01:30:41.111Z,27.73
2023-03-16T01:33:13.258Z,26.97
2023-03-16T01:35:53.177Z,27.05
2023-03-16T01:38:27.580Z,28.20
2023-03-16T01:41:01.041Z,26.43
2023-03-16T01:43:34.708Z,24.20
2023-03-16T01:46:22.624Z,26.27
2023-03-16T01:49:17.581Z,30.75
2023-03-16T01:54:27.403Z,29.67
2023-03-16T01:57:04.814Z,26.53
2023-03-16T01:59:39.795Z,25.27
2023-03-16T02:02:13.600Z,28.20
2023-03-16T02:04:49.816Z,31.23
2023-03-16T02:07:26.129Z,25.50
2023-03-16T02:10:00.338Z,30.37
2023-03-16T02:12:33.520Z,29.97
2023-03-16T02:15:09.054Z,25.95
2023-03-16T02:17:44.625Z,31.40
2023-03-16T02:20:24.162Z,25.90
2023-03-16T02:22:57.338Z,32.27
2023-03-16T02:25:35.543Z,31.05
2023-03-16T02:28:12.299Z,28.42
2023-03-16T02:30:48.445Z,25.75
2023-03-16T02:33:21.466Z,24.93
2023-03-16T02:35:56.245Z,23.83
2023-03-16T02:38:29.182Z,26.60
2023-03-16T02:41:07.400Z,22.35
2023-03-16T02:43:42.935Z,24.47
2023-03-16T02:46:29.777Z,25.68
2023-03-16T02:49:05.899Z,24.67
2023-03-16T02:51:39.083Z,22.80
2023-03-16T02:54:13.095Z,26.60
2023-03-16T02:56:47.114Z,23.70
2023-03-16T02:59:20.498Z,22.02
2023-03-16T03:01:54.509Z,23.07
2023-03-16T03:04:27.712Z,22.00
2023-03-16T03:07:05.032Z,25.37
2023-03-16T03:09:44.115Z,23.77
2023-03-16T03:12:18.122Z,19.37
2023-03-16T03:14:50.699Z,21.73
2023-03-16T03:17:30.444Z,23.33
2023-03-16T03:20:08.342Z,20.67
2023-03-16T03:22:41.737Z,20.48
2023-03-16T03:25:16.071Z,21.50
2023-03-16T03:27:51.113Z,19.67
2023-03-16T03:30:28.243Z,21.50
2023-03-16T03:33:02.189Z,20.25
2023-03-16T03:35:36.344Z,19.43
2023-03-16T03:38:09.758Z,20.20
2023-03-16T03:40:42.463Z,21.65
2023-03-16T03:43:15.241Z,24.00
2023-03-16T03:45:49.506Z,19.03
2023-03-16T03:48:22.277Z,19.10
2023-03-16T03:53:49.910Z,18.33
2023-03-16T03:56:22.941Z,16.85
2023-03-16T03:58:56.701Z,15.43
2023-03-16T04:01:42.591Z,17.77
2023-03-16T04:04:15.372Z,18.70
2023-03-16T04:06:48.355Z,15.53
2023-03-16T04:09:21.341Z,18.15
2023-03-16T04:11:57.833Z,18.47
2023-03-16T04:14:31.464Z,14.73
2023-03-16T04:17:06.290Z,14.23
2023-03-16T04:19:40.669Z,15.33
2023-03-16T04:22:18.146Z,13.57
2023-03-16T04:24:52.564Z,12.75
2023-03-16T04:27:25.749Z,13.25
2023-03-16T04:29:59.959Z,12.50
2023-03-16T04:32:33.890Z,14.20
2023-03-16T04:35:09.007Z,13.90
2023-03-16T04:37:51.822Z,12.68
2023-03-16T04:40:27.710Z,12.63
2023-03-16T04:43:08.239Z,10.63
2023-03-16T04:45:41.584Z,12.03
2023-03-16T04:48:14.413Z,15.13
2023-03-16T04:50:48.880Z,10.90
2023-03-16T04:53:22.633Z,14.13
2023-03-16T04:56:00.744Z,11.20
2023-03-16T04:58:33.931Z,13.40
2023-03-16T05:01:07.375Z,11.80
2023-03-16T05:03:40.349Z,10.17
2023-03-16T05:06:13.805Z,13.60
2023-03-16T05:08:47.100Z,10.40
2023-03-16T05:11:21.112Z,10.53
2023-03-16T05:14:02.492Z,9.20
2023-03-16T05:16:35.882Z,10.03
2023-03-16T05:19:08.864Z,9.55
2023-03-16T05:21:42.509Z,9.17
2023-03-16T05:24:17.361Z,9.30
2023-03-16T05:26:50.484Z,11.60
2023-03-16T05:29:25.113Z,10.50
2023-03-16T05:31:58.295Z,11.43
2023-03-16T05:34:31.945Z,10.70
2023-03-16T05:37:04.881Z,8.23
2023-03-16T05:39:39.322Z,10.77
2023-03-16T05:42:12.556Z,8.55
2023-03-16T05:44:55.920Z,7.63
2023-03-16T05:47:38.739Z,11.55
2023-03-16T05:50:17.075Z,9.15
2023-03-16T05:52:51.059Z,8.77
2023-03-16T05:55:27.538Z,9.27
2023-03-16T05:58:05.891Z,10.45
2023-03-16T06:00:40.663Z,9.75
2023-03-16T06:03:21.845Z,8.10
2023-03-16T06:05:55.028Z,8.45
2023-03-16T06:08:36.413Z,7.70
2023-03-16T06:11:14.535Z,7.53
2023-03-16T06:13:48.526Z,7.10
2023-03-16T06:16:22.571Z,8.43
2023-03-16T06:18:59.226Z,7.07
2023-03-16T06:21:33.827Z,6.23
2023-03-16T06:24:13.795Z,6.83
2023-03-16T06:26:46.555Z,6.53
2023-03-16T06:29:19.949Z,8.97
2023-03-16T06:31:54.898Z,6.25
2023-03-16T06:34:28.381Z,6.75
2023-03-16T06:37:01.991Z,6.50
2023-03-16T06:39:35.174Z,6.93
2023-03-16T06:42:08.566Z,7.70
2023-03-16T06:44:41.960Z,8.83
2023-03-16T06:47:16.382Z,7.95
2023-03-16T06:49:51.451Z,7.73
2023-03-16T06:52:26.903Z,7.10
2023-03-16T06:55:00.282Z,7.53
2023-03-16T06:57:34.052Z,7.03
2023-03-16T07:00:08.115Z,8.30
2023-03-16T07:02:41.660Z,11.85
2023-03-16T07:05:15.257Z,7.80
2023-03-16T07:08:06.673Z,7.60
2023-03-16T07:10:39.657Z,8.00
2023-03-16T07:13:12.850Z,7.70
2023-03-16T07:15:46.855Z,7.80
2023-03-16T07:18:19.839Z,7.60
2023-03-16T07:20:54.319Z,8.75
2023-03-16T07:23:28.885Z,7.95
2023-03-16T07:26:08.452Z,7.80
2023-03-16T07:28:44.270Z,6.83
2023-03-16T07:31:17.491Z,7.63
2023-03-16T07:33:51.069Z,8.67
2023-03-16T07:36:31.825Z,7.60
2023-03-16T07:39:07.481Z,7.90
2023-03-16T07:41:40.866Z,7.43
2023-03-16T07:44:20.980Z,8.00
2023-03-16T07:46:56.258Z,8.00
2023-03-16T07:49:30.682Z,6.33
2023-03-16T07:52:04.280Z,8.07
2023-03-16T07:54:44.232Z,8.70
2023-03-16T07:57:18.232Z,8.47
2023-03-16T07:59:52.242Z,7.25
2023-03-16T08:02:25.524Z,9.10
2023-03-16T08:04:59.644Z,7.40
2023-03-16T08:07:32.834Z,9.00
2023-03-16T08:10:12.047Z,7.17
2023-03-16T08:12:50.700Z,7.35
2023-03-16T08:15:24.921Z,6.75
2023-03-16T08:18:03.214Z,9.60
2023-03-16T08:20:37.481Z,8.10
2023-03-16T08:23:12.466Z,7.60
2023-03-16T08:25:47.290Z,7.10
2023-03-16T08:28:25.602Z,6.85
2023-03-16T08:30:59.625Z,6.33
2023-03-16T08:33:38.785Z,7.65
2023-03-16T08:36:14.035Z,7.05
2023-03-16T08:39:03.879Z,8.50
2023-03-16T08:41:41.037Z,7.33
2023-03-16T08:44:19.229Z,7.17
2023-03-16T08:46:52.208Z,9.30
2023-03-16T08:49:25.727Z,7.00
2023-03-16T08:52:06.517Z,6.50
2023-03-16T08:54:43.071Z,6.53
2023-03-16T08:57:19.434Z,6.77
2023-03-16T08:59:52.817Z,6.27
2023-03-16T09:02:26.216Z,8.07
2023-03-16T09:05:00.835Z,7.23
2023-03-16T09:07:35.876Z,7.95
2023-03-16T09:10:13.674Z,8.60
2023-03-16T09:12:47.984Z,8.43
2023-03-16T09:15:23.225Z,6.27
2023-03-16T09:17:58.249Z,8.17
2023-03-16T09:20:33.310Z,8.00
2023-03-16T09:23:06.500Z,7.30
2023-03-16T09:25:40.688Z,7.50
2023-03-16T09:28:14.898Z,7.77
2023-03-16T09:30:50.341Z,8.37
2023-03-16T09:33:24.776Z,8.20
2023-03-16T09:35:59.008Z,9.63
2023-03-16T09:38:32.575Z,7.63
2023-03-16T09:41:08.621Z,13.40
2023-03-16T09:43:55.141Z,8.90
2023-03-16T09:46:30.202Z,8.53
2023-03-16T09:49:02.947Z,7.97
2023-03-16T09:51:40.388Z,7.90
2023-03-16T09:54:20.638Z,7.30
2023-03-16T09:56:54.393Z,8.97
2023-03-16T09:59:27.446Z,8.40
2023-03-16T10:02:07.541Z,8.65
2023-03-16T10:04:45.143Z,8.05
2023-03-16T10:07:24.724Z,9.40
2023-03-16T10:09:59.174Z,8.00
2023-03-16T10:12:34.012Z,8.63
2023-03-16T10:15:11.909Z,8.60
2023-03-16T10:17:50.181Z,10.50
2023-03-16T10:20:24.866Z,8.48
2023-03-16T10:23:02.340Z,9.63
2023-03-16T10:25:40.853Z,9.63
2023-03-16T10:28:15.269Z,9.18
2023-03-16T10:30:49.690Z,11.27
2023-03-16T10:33:26.002Z,10.80
2023-03-16T10:36:02.805Z,11.23
2023-03-16T10:38:43.589Z,10.63
2023-03-16T10:41:25.692Z,8.90
2023-03-16T10:44:00.115Z,11.00
2023-03-16T10:46:38.010Z,9.10
2023-03-16T10:49:21.542Z,9.83
2023-03-16T10:51:57.608Z,10.17
2023-03-16T10:54:32.647Z,9.77
2023-03-16T10:57:17.301Z,10.20
2023-03-16T10:59:51.851Z,8.77
2023-03-16T11:02:27.983Z,9.50
2023-03-16T11:05:13.065Z,12.20
2023-03-16T11:07:52.860Z,9.10
2023-03-16T11:10:30.560Z,9.07
2023-03-16T11:13:08.900Z,10.90
2023-03-16T11:15:45.813Z,9.50
2023-03-16T11:18:25.159Z,10.00
2023-03-16T11:21:00.686Z,9.83
2023-03-16T11:23:34.668Z,11.50
2023-03-16T11:26:12.112Z,10.90
2023-03-16T11:28:46.621Z,11.10
2023-03-16T11:31:22.764Z,11.03
2023-03-16T11:33:57.704Z,10.30
2023-03-16T11:36:38.037Z,10.27
2023-03-16T11:39:16.956Z,11.40
2023-03-16T11:41:55.227Z,11.10
2023-03-16T11:44:34.600Z,12.13
2023-03-16T11:47:17.007Z,10.77
2023-03-16T11:49:56.156Z,10.75
2023-03-16T11:52:35.465Z,10.33
2023-03-16T11:55:19.557Z,10.93
2023-03-16T11:57:58.801Z,10.97
2023-03-16T12:00:38.986Z,12.07
2023-03-16T12:03:25.794Z,15.17
2023-03-16T12:06:07.790Z,11.53
2023-03-16T12:08:55.018Z,11.55
2023-03-16T12:11:30.331Z,12.53
2023-03-16T12:14:07.741Z,13.30
2023-03-16T12:16:49.362Z,10.37
2023-03-16T12:19:25.139Z,10.73
2023-03-16T12:22:02.816Z,11.50
2023-03-16T12:24:38.318Z,10.97
2023-03-16T12:27:14.335Z,12.30
2023-03-16T12:30:04.138Z,12.15
2023-03-16T12:32:43.324Z,11.30
2023-03-16T12:35:30.573Z,13.97
2023-03-16T12:38:10.568Z,11.12
2023-03-16T12:40:49.261Z,11.60
2023-03-16T12:43:30.610Z,12.68
2023-03-16T12:46:07.269Z,13.83
2023-03-16T12:48:42.750Z,13.67
2023-03-16T12:51:16.346Z,11.43
2023-03-16T12:53:54.852Z,11.67
2023-03-16T12:56:31.506Z,11.30
2023-03-16T12:59:07.738Z,11.53
2023-03-16T13:01:43.855Z,11.60
2023-03-16T13:04:17.732Z,11.18
2023-03-16T13:06:52.692Z,11.37
2023-03-16T13:09:27.782Z,10.93
2023-03-16T13:12:05.168Z,14.58
2023-03-16T13:14:40.720Z,11.40
2023-03-16T13:17:27.741Z,10.45
2023-03-16T13:20:30.317Z,12.27
2023-03-16T13:23:19.788Z,11.80
2023-03-16T13:26:03.686Z,10.82
2023-03-16T13:28:38.960Z,11.18
2023-03-16T13:31:23.414Z,12.73
2023-03-16T13:34:00.382Z,11.83
2023-03-16T13:36:34.452Z,13.63
2023-03-16T13:39:15.213Z,14.63
2023-03-16T13:41:59.784Z,15.33
2023-03-16T13:44:33.685Z,15.60
2023-03-16T13:47:07.895Z,15.05
2023-03-16T13:49:47.448Z,17.40
2023-03-16T13:52:25.861Z,18.80
2023-03-16T13:54:59.001Z,16.70
2023-03-16T13:57:33.758Z,18.95
2023-03-16T14:00:16.171Z,17.12
2023-03-16T14:02:51.090Z,16.82
2023-03-16T14:05:26.257Z,13.20
2023-03-16T14:08:01.164Z,20.27
2023-03-16T14:10:35.944Z,18.87
2023-03-16T14:13:24.437Z,17.35
2023-03-16T14:15:58.292Z,17.67
2023-03-16T14:18:33.070Z,19.42
2023-03-16T14:21:09.971Z,18.30
2023-03-16T14:23:45.495Z,18.77
2023-03-16T14:26:21.362Z,17.15
2023-03-16T14:28:58.651Z,17.13
2023-03-16T14:31:35.827Z,18.27
2023-03-16T14:34:20.472Z,17.97
2023-03-16T14:36:53.866Z,16.53
2023-03-16T14:39:29.399Z,17.03
2023-03-16T14:42:03.737Z,17.52
2023-03-16T14:44:38.516Z,21.97
2023-03-16T14:47:19.944Z,18.67
2023-03-16T14:49:52.719Z,24.32
2023-03-16T14:52:27.965Z,17.37
2023-03-16T14:55:03.372Z,17.30
2023-03-16T14:57:36.795Z,14.40
2023-03-16T15:00:12.816Z,19.37
2023-03-16T15:02:48.735Z,19.73
2023-03-16T15:05:25.201Z,24.18
2023-03-16T15:07:58.367Z,25.12
2023-03-16T15:10:33.609Z,26.42
2023-03-16T15:13:16.439Z,21.62
2023-03-16T15:15:50.032Z,20.40
2023-03-16T15:18:22.388Z,17.93
2023-03-16T15:20:55.577Z,19.45
2023-03-16T15:23:29.173Z,19.10
2023-03-16T15:26:03.213Z,17.13
2023-03-16T15:28:35.965Z,17.55
2023-03-16T15:31:09.389Z,20.30
2023-03-16T15:33:42.958Z,19.02
2023-03-16T15:36:17.293Z,21.27
2023-03-16T15:38:51.181Z,17.10
2023-03-16T15:41:25.847Z,18.37
2023-03-16T15:44:01.081Z,20.07
2023-03-16T15:46:34.299Z,22.53
2023-03-16T15:49:06.828Z,20.63
2023-03-16T15:51:39.797Z,22.93
2023-03-16T15:54:13.675Z,22.98
2023-03-16T15:56:54.388Z,24.37
2023-03-16T15:59:36.792Z,24.80
2023-03-16T16:02:21.009Z,21.87
2023-03-16T16:04:54.235Z,26.37
2023-03-16T16:07:27.591Z,20.67
2023-03-16T16:10:02.629Z,20.57
2023-03-16T16:12:35.617Z,23.63
2023-03-16T16:15:20.484Z,21.13
2023-03-16T16:18:18.580Z,22.50
2023-03-16T16:20:46.415Z,19.90
2023-03-16T16:23:20.317Z,21.23
2023-03-16T16:25:54.125Z,22.25
2023-03-16T16:28:28.745Z,22.03
2023-03-16T16:31:02.576Z,20.30
2023-03-16T16:33:36.165Z,21.03
2023-03-16T16:36:15.057Z,20.65
2023-03-16T16:38:48.678Z,19.55
2023-03-16T16:41:24.645Z,20.10
2023-03-16T16:43:58.537Z,23.67
2023-03-16T16:46:34.593Z,23.40
2023-03-16T16:49:09.057Z,25.40
2023-03-16T16:51:41.791Z,26.30
2023-03-16T16:54:17.302Z,24.63
2023-03-16T16:56:51.671Z,24.00
2023-03-16T16:59:25.874Z,27.47
2023-03-16T17:01:58.851Z,26.25
2023-03-16T17:04:31.660Z,24.33
2023-03-16T17:07:08.327Z,22.37
2023-03-16T17:09:41.497Z,24.60
2023-03-16T17:12:18.727Z,23.57
2023-03-16T17:14:52.172Z,23.37
2023-03-16T17:17:25.777Z,22.97
2023-03-16T17:19:58.556Z,27.40
2023-03-16T17:22:31.548Z,25.93
2023-03-16T17:25:04.942Z,23.37
2023-03-16T17:27:38.328Z,26.50
2023-03-16T17:30:21.016Z,31.00
2023-03-16T17:35:24.860Z,26.70
2023-03-16T17:37:58.057Z,24.77
2023-03-16T17:40:31.831Z,25.12
2023-03-16T17:43:04.843Z,28.17
2023-03-16T17:45:38.239Z,31.03
2023-03-16T17:48:16.759Z,25.15
2023-03-16T17:50:50.154Z,21.97
2023-03-16T17:53:23.747Z,24.73
2023-03-16T17:55:57.551Z,24.73
2023-03-16T17:58:31.639Z,23.53
2023-03-16T18:01:07.055Z,25.20
2023-03-16T18:03:42.726Z,24.03
2023-03-16T18:06:20.892Z,23.50
2023-03-16T18:08:54.159Z,29.73
2023-03-16T18:11:29.877Z,29.00
2023-03-16T18:14:04.420Z,28.97
2023-03-16T18:16:38.669Z,30.07
2023-03-16T18:19:18.918Z,27.57
2023-03-16T18:21:51.772Z,24.00
2023-03-16T18:24:27.015Z,23.23
2023-03-16T18:26:59.994Z,23.57
2023-03-16T18:29:34.210Z,25.77
2023-03-16T18:32:07.397Z,29.27
2023-03-16T18:34:40.323Z,27.13
2023-03-16T18:37:15.715Z,28.15
2023-03-16T18:39:49.089Z,26.97
2023-03-16T18:42:23.036Z,25.77
2023-03-16T18:44:56.435Z,23.90
2023-03-16T18:47:31.727Z,21.87
2023-03-16T18:50:04.438Z,20.90
2023-03-16T18:52:39.529Z,21.73
2023-03-16T18:55:18.564Z,23.30
2023-03-16T18:57:53.040Z,20.20
2023-03-16T19:00:28.725Z,21.47
2023-03-16T19:03:03.513Z,21.33
2023-03-16T19:05:38.156Z,20.77
2023-03-16T19:08:14.023Z,21.43
2023-03-16T19:10:49.518Z,21.80
2023-03-16T19:13:23.423Z,22.23
2023-03-16T19:15:58.147Z,21.93
2023-03-16T19:18:31.841Z,23.67
2023-03-16T19:21:05.650Z,24.70
2023-03-16T19:23:39.656Z,24.67
2023-03-16T19:26:14.072Z,28.73
2023-03-16T19:28:48.899Z,29.47
2023-03-16T19:31:24.180Z,30.30
2023-03-16T19:33:57.952Z,27.83
2023-03-16T19:36:31.622Z,25.70
2023-03-16T19:39:05.578Z,25.93
2023-03-16T19:41:39.561Z,22.07
2023-03-16T19:44:16.036Z,22.27
2023-03-16T19:46:49.628Z,23.67
2023-03-16T19:49:23.236Z,19.93
2023-03-16T19:51:56.624Z,23.47
2023-03-16T19:54:32.295Z,21.77
2023-03-16T19:57:08.932Z,20.70
2023-03-16T19:59:41.930Z,23.57
2023-03-16T20:02:24.966Z,23.40
2023-03-16T20:04:58.148Z,26.10
2023-03-16T20:07:31.326Z,24.70
2023-03-16T20:10:04.649Z,24.57
2023-03-16T20:12:38.622Z,25.67
2023-03-16T20:15:15.049Z,25.17
2023-03-16T20:17:48.589Z,26.40
2023-03-16T20:20:22.915Z,29.95
2023-03-16T20:22:58.665Z,26.03
2023-03-16T20:25:32.396Z,25.80
2023-03-16T20:28:06.269Z,24.95
2023-03-16T20:30:39.677Z,27.27
2023-03-16T20:33:17.022Z,24.00
2023-03-16T20:35:51.192Z,22.80
2023-03-16T20:38:24.561Z,24.07
2023-03-16T20:40:58.169Z,23.60
2023-03-16T20:43:31.958Z,21.95
2023-03-16T20:46:06.501Z,25.80
2023-03-16T20:48:39.364Z,25.60
2023-03-16T20:51:13.993Z,25.83
2023-03-16T20:53:49.248Z,26.00
2023-03-16T20:56:23.443Z,25.40
2023-03-16T20:58:57.244Z,27.20
2023-03-16T21:01:30.666Z,25.33
2023-03-16T21:04:03.837Z,28.87
2023-03-16T21:06:37.224Z,28.97
2023-03-16T21:09:10.665Z,28.70
2023-03-16T21:11:45.666Z,29.25
2023-03-16T21:14:19.651Z,28.00
2023-03-16T21:16:53.252Z,28.50
2023-03-16T21:19:26.240Z,29.40
2023-03-16T21:21:59.638Z,30.07
2023-03-16T21:24:32.821Z,30.33
2023-03-16T21:27:06.832Z,29.75
2023-03-16T21:29:40.232Z,28.40
2023-03-16T21:32:16.338Z,30.13
2023-03-16T21:34:49.265Z,29.30
2023-03-16T21:37:24.507Z,26.60
2023-03-16T21:39:58.661Z,25.70
2023-03-16T21:42:33.137Z,26.70
2023-03-16T21:45:07.146Z,23.93
2023-03-16T21:47:41.765Z,28.90
2023-03-16T21:50:17.004Z,24.37
2023-03-16T21:52:50.446Z,29.55
2023-03-16T21:55:26.050Z,28.25
2023-03-16T21:58:00.100Z,25.80
2023-03-16T22:00:33.654Z,25.00
2023-03-16T22:03:21.669Z,24.40
2023-03-16T22:05:56.218Z,27.77
2023-03-16T22:08:30.837Z,24.65
2023-03-16T22:11:04.232Z,22.27
2023-03-16T22:13:37.418Z,23.35
2023-03-16T22:16:15.352Z,22.30
2023-03-16T22:18:48.933Z,22.25
2023-03-16T22:21:26.452Z,22.05
2023-03-16T22:24:00.212Z,22.67
2023-03-16T22:26:33.436Z,22.67
2023-03-16T22:29:16.219Z,21.93
2023-03-16T22:31:49.872Z,22.90
2023-03-16T22:34:27.805Z,22.87
2023-03-16T22:37:01.780Z,22.17
2023-03-16T22:39:37.857Z,24.25
2023-03-16T22:42:25.311Z,22.67
2023-03-16T22:44:59.123Z,22.35
2023-03-16T22:47:32.960Z,23.75
2023-03-16T22:50:05.698Z,22.13
2023-03-16T22:52:39.096Z,25.95
2023-03-16T22:55:17.405Z,23.33
2023-03-16T22:57:51.697Z,23.83
2023-03-16T23:00:29.117Z,24.17
2023-03-16T23:03:02.525Z,24.65
2023-03-16T23:05:35.091Z,23.93
2023-03-16T23:08:13.821Z,26.90
2023-03-16T23:10:47.405Z,23.85
2023-03-16T23:13:22.244Z,25.65
2023-03-16T23:15:57.098Z,24.20
2023-03-16T23:18:29.709Z,24.55
2023-03-16T23:21:02.821Z,27.30
2023-03-16T23:23:36.016Z,24.15
2023-03-16T23:26:15.348Z,26.05
2023-03-16T23:28:48.515Z,24.65
2023-03-16T23:31:22.384Z,28.23
2023-03-16T23:33:55.208Z,23.60
2023-03-16T23:36:28.515Z,24.90
2023-03-16T23:39:02.118Z,22.95
2023-03-16T23:41:35.721Z,22.70
2023-03-16T23:44:09.784Z,21.60
2023-03-16T23:46:43.351Z,21.60
2023-03-16T23:49:19.776Z,23.75
2023-03-16T23:51:52.589Z,19.30
2023-03-16T23:54:26.881Z,22.45
2023-03-16T23:56:59.775Z,22.40
2023-03-16T23:59:33.572Z,21.75
